sensor_id;sensor_type;location;lat;lon;timestamp;P1;P2;P0
65574;PMS5003;52216;54.942;73.394;2022-12-07T00:02:02;11.00;10.00;5.00
65574;PMS5003;52216;54.942;73.394;2022-12-07T00:05:05;12.00;11.67;6.00
65574;PMS5003;52216;54.942;73.394;2022-12-07T00:08:07;13.00;13.00;5.00
65574;PMS5003;52216;54.942;73.394;2022-12-07T00:11:12;12.00;11.25;4.75
65574;PMS5003;52216;54.942;73.394;2022-12-07T00:14:19;10.67;10.00;3.33
65574;PMS5003;52216;54.942;73.394;2022-12-07T00:17:23;12.00;11.75;4.75
65574;PMS5003;52216;54.942;73.394;2022-12-07T00:20:26;12.00;11.00;5.00
65574;PMS5003;52216;54.942;73.394;2022-12-07T00:23:34;11.25;10.00;5.00
65574;PMS5003;52216;54.942;73.394;2022-12-07T00:26:38;12.75;11.50;6.00
65574;PMS5003;52216;54.942;73.394;2022-12-07T00:29:41;12.00;12.00;4.00
65574;PMS5003;52216;54.942;73.394;2022-12-07T00:32:44;13.00;11.75;3.25
65574;PMS5003;52216;54.942;73.394;2022-12-07T00:35:56;10.00;10.00;3.00
65574;PMS5003;52216;54.942;73.394;2022-12-07T00:39:00;11.75;10.00;5.00
65574;PMS5003;52216;54.942;73.394;2022-12-07T00:42:04;9.75;8.00;3.00
65574;PMS5003;52216;54.942;73.394;2022-12-07T00:45:07;10.00;10.00;5.00
65574;PMS5003;52216;54.942;73.394;2022-12-07T00:48:10;10.00;10.00;4.00
65574;PMS5003;52216;54.942;73.394;2022-12-07T00:51:23;8.00;7.00;3.00
65574;PMS5003;52216;54.942;73.394;2022-12-07T00:54:33;11.75;9.75;4.75
65574;PMS5003;52216;54.942;73.394;2022-12-07T00:57:36;13.00;12.00;5.00
65574;PMS5003;52216;54.942;73.394;2022-12-07T01:00:40;10.75;10.00;3.50
65574;PMS5003;52216;54.942;73.394;2022-12-07T01:03:53;11.00;10.00;5.00
65574;PMS5003;52216;54.942;73.394;2022-12-07T01:06:57;15.50;13.75;6.00
65574;PMS5003;52216;54.942;73.394;2022-12-07T01:09:59;14.00;12.00;6.00
65574;PMS5003;52216;54.942;73.394;2022-12-07T01:13:01;12.00;12.00;6.00
65574;PMS5003;52216;54.942;73.394;2022-12-07T01:16:04;12.00;10.00;3.00
65574;PMS5003;52216;54.942;73.394;2022-12-07T01:19:07;12.00;10.00;5.00
65574;PMS5003;52216;54.942;73.394;2022-12-07T01:22:10;12.00;10.00;4.00
65574;PMS5003;52216;54.942;73.394;2022-12-07T01:25:13;11.00;10.00;3.00
65574;PMS5003;52216;54.942;73.394;2022-12-07T01:28:16;11.25;11.00;4.00
65574;PMS5003;52216;54.942;73.394;2022-12-07T01:31:29;9.00;9.00;4.00
65574;PMS5003;52216;54.942;73.394;2022-12-07T01:34:32;10.50;10.00;4.25
65574;PMS5003;52216;54.942;73.394;2022-12-07T01:37:36;13.00;11.00;4.25
65574;PMS5003;52216;54.942;73.394;2022-12-07T01:40:40;12.67;11.00;4.33
65574;PMS5003;52216;54.942;73.394;2022-12-07T01:47:14;12.00;12.00;5.00
65574;PMS5003;52216;54.942;73.394;2022-12-07T01:50:17;11.00;10.00;3.00
65574;PMS5003;52216;54.942;73.394;2022-12-07T01:53:21;12.00;10.00;3.00
65574;PMS5003;52216;54.942;73.394;2022-12-07T01:56:27;14.00;12.00;5.00
65574;PMS5003;52216;54.942;73.394;2022-12-07T01:59:30;12.00;11.00;5.00
65574;PMS5003;52216;54.942;73.394;2022-12-07T02:02:33;13.00;12.00;5.00
65574;PMS5003;52216;54.942;73.394;2022-12-07T02:05:37;12.75;11.75;4.00
65574;PMS5003;52216;54.942;73.394;2022-12-07T02:08:40;14.00;13.00;5.00
65574;PMS5003;52216;54.942;73.394;2022-12-07T02:11:48;13.67;12.00;5.00
65574;PMS5003;52216;54.942;73.394;2022-12-07T02:15:01;14.00;13.00;4.00
65574;PMS5003;52216;54.942;73.394;2022-12-07T02:24:53;12.00;11.00;5.00
65574;PMS5003;52216;54.942;73.394;2022-12-07T02:28:09;11.25;10.75;4.50
65574;PMS5003;52216;54.942;73.394;2022-12-07T02:31:16;12.00;12.00;5.00
65574;PMS5003;52216;54.942;73.394;2022-12-07T02:37:37;14.00;13.50;6.50
65574;PMS5003;52216;54.942;73.394;2022-12-07T02:44:04;17.00;13.50;5.00
65574;PMS5003;52216;54.942;73.394;2022-12-07T02:47:10;13.00;11.00;4.00
65574;PMS5003;52216;54.942;73.394;2022-12-07T02:50:21;13.75;11.75;5.00
65574;PMS5003;52216;54.942;73.394;2022-12-07T02:56:47;19.00;16.25;8.00
65574;PMS5003;52216;54.942;73.394;2022-12-07T03:03:12;19.00;18.00;11.00
65574;PMS5003;52216;54.942;73.394;2022-12-07T03:06:36;18.00;15.00;9.00
65574;PMS5003;52216;54.942;73.394;2022-12-07T03:09:52;15.00;13.25;6.75
65574;PMS5003;52216;54.942;73.394;2022-12-07T03:13:02;14.67;12.33;5.33
65574;PMS5003;52216;54.942;73.394;2022-12-07T03:19:18;12.00;12.00;5.00
65574;PMS5003;52216;54.942;73.394;2022-12-07T03:22:20;13.00;12.00;5.00
65574;PMS5003;52216;54.942;73.394;2022-12-07T03:25:24;12.00;11.00;4.00
65574;PMS5003;52216;54.942;73.394;2022-12-07T03:28:39;11.00;11.00;3.50
65574;PMS5003;52216;54.942;73.394;2022-12-07T03:31:45;13.00;12.00;3.00
65574;PMS5003;52216;54.942;73.394;2022-12-07T03:34:50;13.50;10.00;4.00
65574;PMS5003;52216;54.942;73.394;2022-12-07T03:37:57;14.00;12.00;5.00
65574;PMS5003;52216;54.942;73.394;2022-12-07T03:41:06;13.75;12.50;6.00
65574;PMS5003;52216;54.942;73.394;2022-12-07T03:44:14;17.00;15.00;8.00
65574;PMS5003;52216;54.942;73.394;2022-12-07T03:53:42;19.00;17.75;10.00
65574;PMS5003;52216;54.942;73.394;2022-12-07T03:56:46;18.00;16.00;10.00
65574;PMS5003;52216;54.942;73.394;2022-12-07T03:59:49;17.00;15.00;8.00
65574;PMS5003;52216;54.942;73.394;2022-12-07T04:02:53;17.00;15.00;8.33
65574;PMS5003;52216;54.942;73.394;2022-12-07T04:06:00;18.00;15.00;8.67
65574;PMS5003;52216;54.942;73.394;2022-12-07T04:09:02;20.00;17.00;12.00
65574;PMS5003;52216;54.942;73.394;2022-12-07T04:12:04;17.00;15.00;11.00
65574;PMS5003;52216;54.942;73.394;2022-12-07T04:15:08;17.67;15.67;10.00
65574;PMS5003;52216;54.942;73.394;2022-12-07T04:18:10;21.00;19.00;10.00
65574;PMS5003;52216;54.942;73.394;2022-12-07T04:21:12;22.00;19.00;10.00
65574;PMS5003;52216;54.942;73.394;2022-12-07T04:24:15;22.25;19.00;12.00
65574;PMS5003;52216;54.942;73.394;2022-12-07T04:27:18;25.00;20.00;12.00
65574;PMS5003;52216;54.942;73.394;2022-12-07T04:30:21;27.00;22.00;12.80
65574;PMS5003;52216;54.942;73.394;2022-12-07T04:33:23;26.00;21.00;13.00
65574;PMS5003;52216;54.942;73.394;2022-12-07T04:36:25;24.00;20.00;12.00
65574;PMS5003;52216;54.942;73.394;2022-12-07T04:39:28;24.50;18.75;12.00
65574;PMS5003;52216;54.942;73.394;2022-12-07T04:42:31;24.00;20.00;12.00
65574;PMS5003;52216;54.942;73.394;2022-12-07T04:45:33;22.00;19.00;12.00
65574;PMS5003;52216;54.942;73.394;2022-12-07T04:48:35;24.00;19.75;12.00
65574;PMS5003;52216;54.942;73.394;2022-12-07T04:51:48;24.00;20.00;12.00
65574;PMS5003;52216;54.942;73.394;2022-12-07T04:54:52;26.00;22.00;13.00
65574;PMS5003;52216;54.942;73.394;2022-12-07T04:57:56;29.00;22.50;14.00
65574;PMS5003;52216;54.942;73.394;2022-12-07T05:00:59;26.00;21.00;14.00
65574;PMS5003;52216;54.942;73.394;2022-12-07T05:04:06;23.25;20.00;13.00
65574;PMS5003;52216;54.942;73.394;2022-12-07T05:07:08;22.00;19.00;12.00
65574;PMS5003;52216;54.942;73.394;2022-12-07T05:10:10;21.50;19.00;12.00
65574;PMS5003;52216;54.942;73.394;2022-12-07T05:13:13;26.50;21.50;13.50
65574;PMS5003;52216;54.942;73.394;2022-12-07T05:16:15;28.00;22.00;14.00
65574;PMS5003;52216;54.942;73.394;2022-12-07T05:19:17;25.50;21.00;12.00
65574;PMS5003;52216;54.942;73.394;2022-12-07T05:22:21;26.33;21.00;12.00
65574;PMS5003;52216;54.942;73.394;2022-12-07T05:25:23;26.75;21.75;13.00
65574;PMS5003;52216;54.942;73.394;2022-12-07T05:28:27;24.00;19.25;12.00
65574;PMS5003;52216;54.942;73.394;2022-12-07T05:31:29;25.00;19.50;12.00
65574;PMS5003;52216;54.942;73.394;2022-12-07T05:34:31;28.00;21.00;14.00
65574;PMS5003;52216;54.942;73.394;2022-12-07T05:37:33;23.50;20.00;12.00
65574;PMS5003;52216;54.942;73.394;2022-12-07T05:40:40;26.00;22.00;13.00
65574;PMS5003;52216;54.942;73.394;2022-12-07T05:43:42;27.00;22.00;14.00
65574;PMS5003;52216;54.942;73.394;2022-12-07T05:46:50;25.75;21.00;12.00
65574;PMS5003;52216;54.942;73.394;2022-12-07T05:49:53;25.00;21.00;13.00
65574;PMS5003;52216;54.942;73.394;2022-12-07T05:53:05;23.00;19.50;12.00
65574;PMS5003;52216;54.942;73.394;2022-12-07T05:56:07;21.75;19.00;12.00
65574;PMS5003;52216;54.942;73.394;2022-12-07T05:59:09;20.00;18.00;11.00
65574;PMS5003;52216;54.942;73.394;2022-12-07T06:02:28;18.50;15.00;9.25
65574;PMS5003;52216;54.942;73.394;2022-12-07T06:05:35;14.00;12.00;5.75
65574;PMS5003;52216;54.942;73.394;2022-12-07T06:08:43;10.50;10.50;3.50
65574;PMS5003;52216;54.942;73.394;2022-12-07T06:11:51;11.00;11.00;4.00
65574;PMS5003;52216;54.942;73.394;2022-12-07T06:15:12;14.00;12.00;5.00
65574;PMS5003;52216;54.942;73.394;2022-12-07T06:18:17;14.00;12.00;4.67
65574;PMS5003;52216;54.942;73.394;2022-12-07T06:21:20;16.00;14.00;5.75
65574;PMS5003;52216;54.942;73.394;2022-12-07T06:24:27;14.00;12.00;5.00
65574;PMS5003;52216;54.942;73.394;2022-12-07T06:27:29;13.00;11.00;4.00
65574;PMS5003;52216;54.942;73.394;2022-12-07T06:30:42;12.00;10.00;4.67
65574;PMS5003;52216;54.942;73.394;2022-12-07T06:33:45;10.00;9.00;3.00
65574;PMS5003;52216;54.942;73.394;2022-12-07T06:36:49;11.00;8.75;3.00
65574;PMS5003;52216;54.942;73.394;2022-12-07T06:39:54;10.00;8.75;3.75
65574;PMS5003;52216;54.942;73.394;2022-12-07T06:42:57;10.00;8.75;3.00
65574;PMS5003;52216;54.942;73.394;2022-12-07T06:46:01;9.00;7.25;3.00
65574;PMS5003;52216;54.942;73.394;2022-12-07T06:49:04;7.00;6.00;3.00
65574;PMS5003;52216;54.942;73.394;2022-12-07T06:52:07;6.50;6.50;3.50
65574;PMS5003;52216;54.942;73.394;2022-12-07T06:55:10;8.00;8.00;3.00
65574;PMS5003;52216;54.942;73.394;2022-12-07T06:58:18;6.00;5.00;2.00
65574;PMS5003;52216;54.942;73.394;2022-12-07T07:01:21;10.00;8.75;3.75
65574;PMS5003;52216;54.942;73.394;2022-12-07T07:04:24;11.00;8.75;3.75
65574;PMS5003;52216;54.942;73.394;2022-12-07T07:07:32;11.00;10.00;3.00
65574;PMS5003;52216;54.942;73.394;2022-12-07T07:10:40;10.00;9.00;3.00
65574;PMS5003;52216;54.942;73.394;2022-12-07T07:13:53;8.00;7.00;2.00
65574;PMS5003;52216;54.942;73.394;2022-12-07T07:16:59;5.00;4.00;2.00
65574;PMS5003;52216;54.942;73.394;2022-12-07T07:20:12;7.00;5.00;2.00
65574;PMS5003;52216;54.942;73.394;2022-12-07T07:23:15;5.25;5.00;1.00
65574;PMS5003;52216;54.942;73.394;2022-12-07T07:26:18;4.00;3.25;1.00
65574;PMS5003;52216;54.942;73.394;2022-12-07T07:29:21;8.00;7.00;3.25
65574;PMS5003;52216;54.942;73.394;2022-12-07T07:32:24;11.50;7.00;3.50
65574;PMS5003;52216;54.942;73.394;2022-12-07T07:35:28;11.00;7.00;3.00
65574;PMS5003;52216;54.942;73.394;2022-12-07T07:38:31;11.50;6.50;3.00
65574;PMS5003;52216;54.942;73.394;2022-12-07T07:41:35;10.75;6.75;3.00
65574;PMS5003;52216;54.942;73.394;2022-12-07T07:44:39;10.00;7.00;3.00
65574;PMS5003;52216;54.942;73.394;2022-12-07T07:47:42;10.00;8.00;3.00
65574;PMS5003;52216;54.942;73.394;2022-12-07T07:50:45;10.00;8.75;3.00
65574;PMS5003;52216;54.942;73.394;2022-12-07T07:53:49;12.00;10.00;3.50
65574;PMS5003;52216;54.942;73.394;2022-12-07T07:57:01;10.25;9.00;3.00
65574;PMS5003;52216;54.942;73.394;2022-12-07T08:00:14;9.00;8.00;3.00
65574;PMS5003;52216;54.942;73.394;2022-12-07T08:03:17;8.00;7.00;2.00
65574;PMS5003;52216;54.942;73.394;2022-12-07T08:06:20;4.00;4.00;1.50
65574;PMS5003;52216;54.942;73.394;2022-12-07T08:09:23;4.50;3.00;1.00
65574;PMS5003;52216;54.942;73.394;2022-12-07T08:12:26;3.00;3.00;1.00
65574;PMS5003;52216;54.942;73.394;2022-12-07T08:15:30;2.00;2.00;1.00
65574;PMS5003;52216;54.942;73.394;2022-12-07T08:18:37;3.00;2.75;1.00
65574;PMS5003;52216;54.942;73.394;2022-12-07T08:21:50;4.00;3.00;1.00
65574;PMS5003;52216;54.942;73.394;2022-12-07T08:25:04;3.00;3.00;1.00
65574;PMS5003;52216;54.942;73.394;2022-12-07T08:28:07;5.00;5.00;2.00
65574;PMS5003;52216;54.942;73.394;2022-12-07T08:31:14;5.00;4.50;2.00
65574;PMS5003;52216;54.942;73.394;2022-12-07T08:34:28;3.00;2.00;0.00
65574;PMS5003;52216;54.942;73.394;2022-12-07T08:37:31;1.75;1.00;0.00
65574;PMS5003;52216;54.942;73.394;2022-12-07T08:40:35;1.00;1.00;0.00
65574;PMS5003;52216;54.942;73.394;2022-12-07T08:43:37;1.00;1.00;0.00
65574;PMS5003;52216;54.942;73.394;2022-12-07T08:46:41;1.25;1.25;0.00
65574;PMS5003;52216;54.942;73.394;2022-12-07T08:49:52;1.50;1.25;0.00
65574;PMS5003;52216;54.942;73.394;2022-12-07T08:52:57;2.75;2.75;0.00
65574;PMS5003;52216;54.942;73.394;2022-12-07T08:56:00;1.00;0.00;0.00
65574;PMS5003;52216;54.942;73.394;2022-12-07T08:59:04;1.00;1.00;0.00
65574;PMS5003;52216;54.942;73.394;2022-12-07T09:02:17;1.00;1.00;0.00
65574;PMS5003;52216;54.942;73.394;2022-12-07T09:05:19;1.00;1.00;0.00
65574;PMS5003;52216;54.942;73.394;2022-12-07T09:08:22;2.00;2.00;0.00
65574;PMS5003;52216;54.942;73.394;2022-12-07T09:11:25;1.00;1.00;0.00
65574;PMS5003;52216;54.942;73.394;2022-12-07T09:14:38;2.00;2.00;0.75
65574;PMS5003;52216;54.942;73.394;2022-12-07T09:17:40;2.00;2.00;0.00
65574;PMS5003;52216;54.942;73.394;2022-12-07T09:20:42;3.00;3.00;0.00
65574;PMS5003;52216;54.942;73.394;2022-12-07T09:23:45;5.00;5.00;0.00
65574;PMS5003;52216;54.942;73.394;2022-12-07T09:26:49;3.00;3.00;1.00
65574;PMS5003;52216;54.942;73.394;2022-12-07T09:29:52;3.00;2.50;1.00
65574;PMS5003;52216;54.942;73.394;2022-12-07T09:32:56;1.25;1.25;1.00
65574;PMS5003;52216;54.942;73.394;2022-12-07T09:35:58;2.50;2.50;1.00
65574;PMS5003;52216;54.942;73.394;2022-12-07T09:39:10;3.00;3.00;0.00
65574;PMS5003;52216;54.942;73.394;2022-12-07T09:42:26;2.00;2.00;1.00
65574;PMS5003;52216;54.942;73.394;2022-12-07T09:45:35;3.75;3.50;1.00
65574;PMS5003;52216;54.942;73.394;2022-12-07T09:48:39;4.00;3.00;1.00
65574;PMS5003;52216;54.942;73.394;2022-12-07T09:51:58;5.25;5.00;1.00
65574;PMS5003;52216;54.942;73.394;2022-12-07T09:55:01;5.00;5.00;2.00
65574;PMS5003;52216;54.942;73.394;2022-12-07T09:58:05;7.75;7.75;3.00
65574;PMS5003;52216;54.942;73.394;2022-12-07T10:04:13;9.00;7.00;3.00
65574;PMS5003;52216;54.942;73.394;2022-12-07T10:07:17;7.00;5.00;1.00
65574;PMS5003;52216;54.942;73.394;2022-12-07T10:10:24;5.00;5.00;1.00
65574;PMS5003;52216;54.942;73.394;2022-12-07T10:16:38;5.00;5.00;3.00
65574;PMS5003;52216;54.942;73.394;2022-12-07T10:19:42;3.75;3.75;2.00
65574;PMS5003;52216;54.942;73.394;2022-12-07T10:22:55;4.75;4.00;1.00
65574;PMS5003;52216;54.942;73.394;2022-12-07T10:29:34;5.00;4.25;2.00
65574;PMS5003;52216;54.942;73.394;2022-12-07T10:32:38;6.50;5.00;2.00
65574;PMS5003;52216;54.942;73.394;2022-12-07T10:35:44;3.00;3.00;1.00
65574;PMS5003;52216;54.942;73.394;2022-12-07T10:38:49;5.00;3.25;1.00
65574;PMS5003;52216;54.942;73.394;2022-12-07T10:41:54;4.75;4.75;2.00
65574;PMS5003;52216;54.942;73.394;2022-12-07T10:45:17;4.75;4.75;1.00
65574;PMS5003;52216;54.942;73.394;2022-12-07T11:12:45;3.50;3.25;1.00
65574;PMS5003;52216;54.942;73.394;2022-12-07T11:21:49;5.00;3.00;2.00
65574;PMS5003;52216;54.942;73.394;2022-12-07T11:31:22;5.00;5.00;2.25
65574;PMS5003;52216;54.942;73.394;2022-12-07T11:38:15;7.00;5.25;3.00
65574;PMS5003;52216;54.942;73.394;2022-12-07T11:41:20;5.00;5.00;2.00
65574;PMS5003;52216;54.942;73.394;2022-12-07T11:44:34;6.25;5.00;2.00
65574;PMS5003;52216;54.942;73.394;2022-12-07T11:50:53;10.00;8.50;4.00
65574;PMS5003;52216;54.942;73.394;2022-12-07T11:54:19;9.00;6.00;1.00
65574;PMS5003;52216;54.942;73.394;2022-12-07T11:57:24;9.00;7.00;3.00
65574;PMS5003;52216;54.942;73.394;2022-12-07T12:00:30;8.75;6.00;3.00
65574;PMS5003;52216;54.942;73.394;2022-12-07T12:03:34;6.75;5.00;1.00
65574;PMS5003;52216;54.942;73.394;2022-12-07T12:06:43;5.00;4.25;1.00
65574;PMS5003;52216;54.942;73.394;2022-12-07T12:10:13;5.00;4.00;1.00
65574;PMS5003;52216;54.942;73.394;2022-12-07T12:20:13;3.00;3.00;1.00
65574;PMS5003;52216;54.942;73.394;2022-12-07T12:23:19;3.75;3.50;1.00
65574;PMS5003;52216;54.942;73.394;2022-12-07T12:26:24;3.75;3.75;1.00
65574;PMS5003;52216;54.942;73.394;2022-12-07T12:29:33;5.00;5.00;1.00
65574;PMS5003;52216;54.942;73.394;2022-12-07T12:32:40;5.00;5.00;1.00
65574;PMS5003;52216;54.942;73.394;2022-12-07T12:35:43;6.00;3.00;2.00
65574;PMS5003;52216;54.942;73.394;2022-12-07T12:42:18;7.25;5.25;2.00
65574;PMS5003;52216;54.942;73.394;2022-12-07T12:45:32;5.00;5.00;3.00
65574;PMS5003;52216;54.942;73.394;2022-12-07T12:48:35;7.00;5.00;3.00
65574;PMS5003;52216;54.942;73.394;2022-12-07T12:51:40;8.00;5.00;3.00
65574;PMS5003;52216;54.942;73.394;2022-12-07T12:55:00;9.00;6.00;2.00
65574;PMS5003;52216;54.942;73.394;2022-12-07T13:07:53;10.50;9.75;4.00
65574;PMS5003;52216;54.942;73.394;2022-12-07T13:11:15;12.25;12.00;3.25
65574;PMS5003;52216;54.942;73.394;2022-12-07T13:21:00;15.00;13.00;4.00
65574;PMS5003;52216;54.942;73.394;2022-12-07T13:24:07;15.25;13.75;4.75
65574;PMS5003;52216;54.942;73.394;2022-12-07T13:27:16;16.00;13.50;5.00
65574;PMS5003;52216;54.942;73.394;2022-12-07T13:30:19;15.00;14.00;5.00
65574;PMS5003;52216;54.942;73.394;2022-12-07T13:33:22;12.50;12.00;5.00
65574;PMS5003;52216;54.942;73.394;2022-12-07T13:39:27;18.00;17.00;8.00
65574;PMS5003;52216;54.942;73.394;2022-12-07T13:42:31;17.00;16.00;9.67
65574;PMS5003;52216;54.942;73.394;2022-12-07T13:45:33;19.00;16.50;9.00
65574;PMS5003;52216;54.942;73.394;2022-12-07T13:48:57;16.75;13.50;6.00
65574;PMS5003;52216;54.942;73.394;2022-12-07T13:52:33;14.33;13.33;5.00
65574;PMS5003;52216;54.942;73.394;2022-12-07T13:55:30;15.00;14.00;6.00
65574;PMS5003;52216;54.942;73.394;2022-12-07T13:58:33;15.00;13.00;5.00
65574;PMS5003;52216;54.942;73.394;2022-12-07T14:01:36;15.00;12.00;6.25
65574;PMS5003;52216;54.942;73.394;2022-12-07T14:04:38;13.75;12.50;5.00
65574;PMS5003;52216;54.942;73.394;2022-12-07T14:07:59;13.75;11.75;4.00
65574;PMS5003;52216;54.942;73.394;2022-12-07T14:11:02;14.00;12.00;5.00
65574;PMS5003;52216;54.942;73.394;2022-12-07T14:14:05;15.00;13.33;5.00
65574;PMS5003;52216;54.942;73.394;2022-12-07T14:17:15;15.00;13.75;5.00
65574;PMS5003;52216;54.942;73.394;2022-12-07T14:20:31;14.50;12.25;5.25
65574;PMS5003;52216;54.942;73.394;2022-12-07T14:23:35;14.67;13.33;6.00
65574;PMS5003;52216;54.942;73.394;2022-12-07T14:26:45;17.00;15.00;6.00
65574;PMS5003;52216;54.942;73.394;2022-12-07T14:29:49;16.25;14.00;6.00
65574;PMS5003;52216;54.942;73.394;2022-12-07T14:32:58;14.00;13.00;5.00
65574;PMS5003;52216;54.942;73.394;2022-12-07T14:36:01;14.75;13.00;6.50
65574;PMS5003;52216;54.942;73.394;2022-12-07T14:39:03;15.00;13.00;6.00
65574;PMS5003;52216;54.942;73.394;2022-12-07T14:42:07;15.00;13.00;5.00
65574;PMS5003;52216;54.942;73.394;2022-12-07T14:45:13;15.00;13.00;5.75
65574;PMS5003;52216;54.942;73.394;2022-12-07T14:48:20;17.00;16.00;8.00
65574;PMS5003;52216;54.942;73.394;2022-12-07T14:51:24;17.00;16.00;8.00
65574;PMS5003;52216;54.942;73.394;2022-12-07T14:54:27;16.00;15.00;6.00
65574;PMS5003;52216;54.942;73.394;2022-12-07T14:57:31;16.00;13.00;5.00
65574;PMS5003;52216;54.942;73.394;2022-12-07T15:00:33;15.75;14.00;6.00
65574;PMS5003;52216;54.942;73.394;2022-12-07T15:03:36;16.00;16.00;6.00
65574;PMS5003;52216;54.942;73.394;2022-12-07T15:06:39;15.50;14.00;6.00
65574;PMS5003;52216;54.942;73.394;2022-12-07T15:10:03;14.00;12.33;5.00
65574;PMS5003;52216;54.942;73.394;2022-12-07T15:13:05;15.00;13.00;6.00
65574;PMS5003;52216;54.942;73.394;2022-12-07T15:16:26;13.00;12.50;5.00
65574;PMS5003;52216;54.942;73.394;2022-12-07T15:19:33;17.00;14.50;6.25
65574;PMS5003;52216;54.942;73.394;2022-12-07T15:22:35;19.00;18.00;10.00
65574;PMS5003;52216;54.942;73.394;2022-12-07T15:25:41;18.50;17.00;11.00
65574;PMS5003;52216;54.942;73.394;2022-12-07T15:28:54;17.00;15.00;10.00
65574;PMS5003;52216;54.942;73.394;2022-12-07T15:31:57;20.00;16.67;11.00
65574;PMS5003;52216;54.942;73.394;2022-12-07T15:34:59;20.33;18.00;11.00
65574;PMS5003;52216;54.942;73.394;2022-12-07T15:38:03;20.00;18.00;11.00
65574;PMS5003;52216;54.942;73.394;2022-12-07T15:41:06;20.25;17.00;10.00
65574;PMS5003;52216;54.942;73.394;2022-12-07T15:44:12;19.80;18.00;11.00
65574;PMS5003;52216;54.942;73.394;2022-12-07T15:47:37;19.50;18.00;11.00
65574;PMS5003;52216;54.942;73.394;2022-12-07T15:50:50;20.00;16.00;9.00
65574;PMS5003;52216;54.942;73.394;2022-12-07T15:54:03;17.00;16.00;9.00
65574;PMS5003;52216;54.942;73.394;2022-12-07T15:57:16;15.75;14.25;7.75
65574;PMS5003;52216;54.942;73.394;2022-12-07T16:00:19;14.00;13.00;6.00
65574;PMS5003;52216;54.942;73.394;2022-12-07T16:03:31;14.25;13.00;6.00
65574;PMS5003;52216;54.942;73.394;2022-12-07T16:06:38;16.00;13.00;6.00
65574;PMS5003;52216;54.942;73.394;2022-12-07T16:09:42;16.00;13.00;5.00
65574;PMS5003;52216;54.942;73.394;2022-12-07T16:12:44;11.00;10.00;3.75
65574;PMS5003;52216;54.942;73.394;2022-12-07T16:15:47;13.00;11.00;4.50
65574;PMS5003;52216;54.942;73.394;2022-12-07T16:19:00;14.25;13.00;5.00
65574;PMS5003;52216;54.942;73.394;2022-12-07T16:22:12;13.00;12.50;4.50
65574;PMS5003;52216;54.942;73.394;2022-12-07T16:25:16;14.00;13.00;4.50
65574;PMS5003;52216;54.942;73.394;2022-12-07T16:28:29;13.00;13.00;5.00
65574;PMS5003;52216;54.942;73.394;2022-12-07T16:31:37;14.50;14.50;4.50
65574;PMS5003;52216;54.942;73.394;2022-12-07T16:34:41;14.00;13.00;5.25
65574;PMS5003;52216;54.942;73.394;2022-12-07T16:37:43;14.00;13.00;6.00
65574;PMS5003;52216;54.942;73.394;2022-12-07T16:40:46;14.33;13.00;5.00
65574;PMS5003;52216;54.942;73.394;2022-12-07T16:43:48;17.00;14.50;7.00
65574;PMS5003;52216;54.942;73.394;2022-12-07T16:46:52;14.33;13.00;6.33
65574;PMS5003;52216;54.942;73.394;2022-12-07T16:49:54;13.00;13.00;5.00
65574;PMS5003;52216;54.942;73.394;2022-12-07T16:53:11;14.50;14.00;5.00
65574;PMS5003;52216;54.942;73.394;2022-12-07T16:56:24;15.00;14.67;7.67
65574;PMS5003;52216;54.942;73.394;2022-12-07T16:59:29;19.00;16.00;9.00
65574;PMS5003;52216;54.942;73.394;2022-12-07T17:02:31;18.00;17.25;9.25
65574;PMS5003;52216;54.942;73.394;2022-12-07T17:05:39;17.00;16.00;9.25
65574;PMS5003;52216;54.942;73.394;2022-12-07T17:08:42;18.00;15.33;10.00
65574;PMS5003;52216;54.942;73.394;2022-12-07T17:11:45;20.00;18.00;10.00
65574;PMS5003;52216;54.942;73.394;2022-12-07T17:14:47;17.00;16.00;9.00
65574;PMS5003;52216;54.942;73.394;2022-12-07T17:18:16;18.00;16.00;8.00
65574;PMS5003;52216;54.942;73.394;2022-12-07T17:21:20;18.00;16.00;7.00
65574;PMS5003;52216;54.942;73.394;2022-12-07T17:24:28;17.67;14.67;6.33
65574;PMS5003;52216;54.942;73.394;2022-12-07T17:27:32;17.00;16.00;7.33
65574;PMS5003;52216;54.942;73.394;2022-12-07T17:30:45;17.75;14.75;7.00
65574;PMS5003;52216;54.942;73.394;2022-12-07T17:33:48;18.00;15.00;7.00
65574;PMS5003;52216;54.942;73.394;2022-12-07T17:36:55;17.25;16.00;5.25
65574;PMS5003;52216;54.942;73.394;2022-12-07T17:39:58;17.00;16.00;6.00
65574;PMS5003;52216;54.942;73.394;2022-12-07T17:43:01;16.00;13.00;5.00
65574;PMS5003;52216;54.942;73.394;2022-12-07T17:46:07;15.00;13.33;6.00
65574;PMS5003;52216;54.942;73.394;2022-12-07T17:49:09;14.00;14.00;6.00
65574;PMS5003;52216;54.942;73.394;2022-12-07T17:52:12;15.25;14.00;6.25
65574;PMS5003;52216;54.942;73.394;2022-12-07T17:55:32;13.00;13.00;6.00
65574;PMS5003;52216;54.942;73.394;2022-12-07T17:58:34;14.00;13.00;6.00
65574;PMS5003;52216;54.942;73.394;2022-12-07T18:01:37;13.00;11.00;4.00
65574;PMS5003;52216;54.942;73.394;2022-12-07T18:04:40;13.50;11.50;4.25
65574;PMS5003;52216;54.942;73.394;2022-12-07T18:07:47;14.25;13.00;5.00
65574;PMS5003;52216;54.942;73.394;2022-12-07T18:10:56;14.00;13.00;4.33
65574;PMS5003;52216;54.942;73.394;2022-12-07T18:14:09;18.75;14.00;5.00
65574;PMS5003;52216;54.942;73.394;2022-12-07T18:17:13;16.00;14.00;5.00
65574;PMS5003;52216;54.942;73.394;2022-12-07T18:20:16;15.25;14.00;5.00
65574;PMS5003;52216;54.942;73.394;2022-12-07T18:23:20;13.00;13.00;5.00
65574;PMS5003;52216;54.942;73.394;2022-12-07T18:26:23;11.00;11.00;4.00
65574;PMS5003;52216;54.942;73.394;2022-12-07T18:29:36;13.00;12.00;5.50
65574;PMS5003;52216;54.942;73.394;2022-12-07T18:32:40;13.75;13.00;4.00
65574;PMS5003;52216;54.942;73.394;2022-12-07T18:35:43;13.25;11.00;5.75
65574;PMS5003;52216;54.942;73.394;2022-12-07T18:38:46;14.00;12.00;4.50
65574;PMS5003;52216;54.942;73.394;2022-12-07T18:41:50;13.00;11.00;4.50
65574;PMS5003;52216;54.942;73.394;2022-12-07T18:44:54;13.00;11.00;4.00
65574;PMS5003;52216;54.942;73.394;2022-12-07T18:48:03;12.00;9.50;4.00
65574;PMS5003;52216;54.942;73.394;2022-12-07T18:51:07;13.25;12.75;3.50
65574;PMS5003;52216;54.942;73.394;2022-12-07T18:54:12;13.00;11.00;4.00
65574;PMS5003;52216;54.942;73.394;2022-12-07T18:57:14;11.00;11.00;4.00
65574;PMS5003;52216;54.942;73.394;2022-12-07T19:00:17;12.00;11.00;4.75
65574;PMS5003;52216;54.942;73.394;2022-12-07T19:03:21;13.00;12.00;4.00
65574;PMS5003;52216;54.942;73.394;2022-12-07T19:06:24;12.00;11.00;3.50
65574;PMS5003;52216;54.942;73.394;2022-12-07T19:09:38;13.00;11.00;4.00
65574;PMS5003;52216;54.942;73.394;2022-12-07T19:12:40;14.00;13.00;4.00
65574;PMS5003;52216;54.942;73.394;2022-12-07T19:15:48;12.00;11.00;4.00
65574;PMS5003;52216;54.942;73.394;2022-12-07T19:18:50;12.00;11.33;4.00
65574;PMS5003;52216;54.942;73.394;2022-12-07T19:22:03;11.00;11.00;3.00
65574;PMS5003;52216;54.942;73.394;2022-12-07T19:25:07;10.50;9.00;3.00
65574;PMS5003;52216;54.942;73.394;2022-12-07T19:28:10;12.25;11.00;4.00